createdAt,value
2023-01-18T00:01:14.055Z,1.20
2023-01-18T00:03:42.279Z,1.20
2023-01-18T00:06:10.463Z,1.20
2023-01-18T00:08:38.896Z,1.30
2023-01-18T00:11:11.023Z,1.20
2023-01-18T00:13:38.418Z,1.20
2023-01-18T00:16:13.382Z,1.20
2023-01-18T00:18:40.408Z,1.20
2023-01-18T00:21:11.249Z,1.20
2023-01-18T00:23:38.785Z,1.20
2023-01-18T00:26:07.970Z,1.10
2023-01-18T00:28:35.456Z,1.10
2023-01-18T00:31:02.388Z,1.10
2023-01-18T00:33:28.972Z,1.10
2023-01-18T00:36:00.492Z,1.20
2023-01-18T00:38:28.054Z,1.20
2023-01-18T00:40:54.819Z,1.10
2023-01-18T00:43:40.591Z,1.10
2023-01-18T00:46:16.312Z,1.10
2023-01-18T00:48:44.184Z,1.10
2023-01-18T00:51:14.017Z,1.10
2023-01-18T00:53:43.894Z,1.10
2023-01-18T00:56:12.945Z,1.10
2023-01-18T00:58:39.579Z,1.10
2023-01-18T01:01:07.840Z,1.10
2023-01-18T01:03:54.850Z,1.10
2023-01-18T01:06:47.040Z,1.10
2023-01-18T01:09:20.887Z,1.00
2023-01-18T01:12:07.494Z,1.10
2023-01-18T01:14:56.837Z,1.00
2023-01-18T01:17:42.383Z,1.00
2023-01-18T01:20:29.152Z,1.10
2023-01-18T01:23:14.552Z,1.10
2023-01-18T01:26:00.012Z,1.10
2023-01-18T01:28:26.891Z,1.10
2023-01-18T01:31:00.859Z,1.10
2023-01-18T01:33:28.916Z,1.10
2023-01-18T01:36:00.104Z,1.10
2023-01-18T01:38:27.349Z,1.10
2023-01-18T01:41:11.197Z,1.10
2023-01-18T01:43:47.049Z,1.10
2023-01-18T01:46:34.275Z,1.10
2023-01-18T01:49:10.117Z,1.00
2023-01-18T01:51:44.335Z,1.10
2023-01-18T01:54:28.684Z,1.00
2023-01-18T01:57:01.384Z,1.10
2023-01-18T01:59:27.995Z,1.10
2023-01-18T02:01:54.754Z,1.00
2023-01-18T02:04:21.584Z,1.00
2023-01-18T02:06:48.154Z,1.00
2023-01-18T02:09:15.955Z,1.00
2023-01-18T02:11:43.750Z,1.00
2023-01-18T02:14:15.821Z,0.90
2023-01-18T02:16:56.216Z,0.90
2023-01-18T02:20:06.903Z,0.90
2023-01-18T02:23:07.476Z,0.90
2023-01-18T02:26:04.347Z,0.90
2023-01-18T02:28:37.658Z,0.90
2023-01-18T02:31:24.853Z,0.80
2023-01-18T02:34:14.086Z,0.80
2023-01-18T02:36:55.396Z,0.90
2023-01-18T02:39:38.374Z,0.80
2023-01-18T02:42:34.106Z,0.80
2023-01-18T02:45:21.348Z,0.80
2023-01-18T02:47:48.530Z,0.80
2023-01-18T02:50:24.152Z,0.80
2023-01-18T02:52:52.004Z,0.90
2023-01-18T02:55:30.358Z,0.90
2023-01-18T02:58:09.347Z,0.90
2023-01-18T03:00:40.401Z,0.90
2023-01-18T03:03:10.365Z,0.90
2023-01-18T03:05:38.125Z,0.90
2023-01-18T03:08:35.506Z,0.90
2023-01-18T03:11:12.124Z,1.00
2023-01-18T03:13:53.390Z,1.00
2023-01-18T03:16:43.708Z,1.00
2023-01-18T03:19:37.177Z,1.00
2023-01-18T03:22:05.369Z,1.00
2023-01-18T03:24:41.132Z,1.00
2023-01-18T03:27:27.940Z,1.00
2023-01-18T03:30:14.269Z,1.00
2023-01-18T03:33:00.460Z,1.00
2023-01-18T03:35:29.887Z,0.90
2023-01-18T03:37:58.796Z,1.00
2023-01-18T03:40:28.914Z,1.00
2023-01-18T03:43:16.070Z,0.90
2023-01-18T03:45:44.925Z,1.00
2023-01-18T03:48:12.510Z,0.90
2023-01-18T03:50:49.288Z,1.00
2023-01-18T03:53:26.497Z,0.90
2023-01-18T03:55:58.523Z,0.90
2023-01-18T03:58:31.738Z,0.90
2023-01-18T04:00:58.794Z,0.90
2023-01-18T04:03:25.369Z,0.90
2023-01-18T04:05:52.094Z,0.90
2023-01-18T04:08:21.849Z,0.90
2023-01-18T04:10:48.509Z,1.00
2023-01-18T04:13:15.124Z,0.90
2023-01-18T04:15:41.799Z,0.90
2023-01-18T04:18:08.384Z,0.90
2023-01-18T04:20:34.966Z,0.90
2023-01-18T04:23:01.653Z,0.90
2023-01-18T04:25:28.386Z,0.90
2023-01-18T04:27:55.053Z,0.90
2023-01-18T04:30:21.742Z,0.90
2023-01-18T04:32:49.065Z,0.90
2023-01-18T04:35:15.879Z,0.90
2023-01-18T04:37:42.502Z,0.90
2023-01-18T04:40:09.995Z,0.80
2023-01-18T04:42:36.725Z,0.80
2023-01-18T04:45:03.490Z,0.80
2023-01-18T04:47:30.192Z,0.80
2023-01-18T04:49:57.558Z,0.80
2023-01-18T04:52:25.235Z,0.80
2023-01-18T04:54:52.238Z,0.80
2023-01-18T04:57:18.876Z,0.70
2023-01-18T04:59:45.943Z,0.70
2023-01-18T05:02:13.148Z,0.70
2023-01-18T05:04:39.835Z,0.70
2023-01-18T05:07:06.437Z,0.70
2023-01-18T05:09:34.101Z,0.70
2023-01-18T05:12:00.692Z,0.70
2023-01-18T05:14:27.423Z,0.80
2023-01-18T05:16:54.040Z,0.80
2023-01-18T05:19:20.712Z,0.80
2023-01-18T05:21:47.287Z,0.70
2023-01-18T05:24:13.978Z,0.70
2023-01-18T05:26:40.657Z,0.70
2023-01-18T05:29:07.356Z,0.60
2023-01-18T05:31:34.040Z,0.60
2023-01-18T05:34:00.725Z,0.60
2023-01-18T05:36:27.349Z,0.60
2023-01-18T05:38:55.050Z,0.70
2023-01-18T05:41:21.648Z,0.70
2023-01-18T05:43:48.348Z,0.70
2023-01-18T05:46:14.991Z,0.70
2023-01-18T05:48:41.691Z,0.70
2023-01-18T05:51:10.307Z,0.70
2023-01-18T05:53:37.562Z,0.70
2023-01-18T05:56:06.528Z,0.60
2023-01-18T05:58:33.659Z,0.70
2023-01-18T06:01:00.374Z,0.70
2023-01-18T06:03:27.033Z,0.70
2023-01-18T06:05:53.724Z,0.60
2023-01-18T06:08:20.801Z,0.60
2023-01-18T06:10:58.547Z,0.60
2023-01-18T06:13:30.881Z,0.70
2023-01-18T06:15:58.309Z,0.60
2023-01-18T06:18:26.621Z,0.70
2023-01-18T06:20:59.059Z,0.60
2023-01-18T06:23:27.558Z,0.60
2023-01-18T06:25:54.194Z,0.60
2023-01-18T06:28:22.503Z,0.60
2023-01-18T06:30:52.749Z,0.60
2023-01-18T06:33:19.647Z,0.60
2023-01-18T06:35:46.324Z,0.70
2023-01-18T06:38:13.945Z,0.70
2023-01-18T06:40:40.981Z,0.70
2023-01-18T06:43:10.124Z,0.70
2023-01-18T06:45:36.828Z,0.70
2023-01-18T06:48:04.639Z,0.80
2023-01-18T06:50:31.306Z,1.10
2023-01-18T06:52:58.318Z,1.00
2023-01-18T06:55:25.263Z,0.90
2023-01-18T06:57:51.825Z,0.80
2023-01-18T07:00:18.961Z,0.80
2023-01-18T07:02:45.714Z,0.80
2023-01-18T07:05:12.391Z,0.70
2023-01-18T07:07:39.090Z,0.70
2023-01-18T07:10:06.109Z,0.70
2023-01-18T07:12:33.783Z,0.70
2023-01-18T07:15:12.661Z,0.70
2023-01-18T07:17:47.071Z,0.70
2023-01-18T07:20:15.819Z,0.70
2023-01-18T07:22:42.887Z,0.70
2023-01-18T07:25:13.138Z,0.60
2023-01-18T07:27:43.133Z,0.60
2023-01-18T07:30:12.320Z,0.60
2023-01-18T07:32:39.842Z,0.60
2023-01-18T07:35:07.278Z,0.60
2023-01-18T07:37:34.253Z,0.60
2023-01-18T07:40:00.967Z,0.60
2023-01-18T07:42:27.531Z,0.60
2023-01-18T07:44:54.259Z,0.70
2023-01-18T07:47:20.903Z,0.60
2023-01-18T07:49:47.562Z,0.70
2023-01-18T07:52:14.191Z,0.70
2023-01-18T07:54:40.991Z,0.60
2023-01-18T07:57:07.675Z,0.70
2023-01-18T07:59:34.299Z,0.70
2023-01-18T08:02:01.116Z,0.60
2023-01-18T08:04:27.737Z,0.70
2023-01-18T08:06:57.908Z,0.70
2023-01-18T08:09:24.467Z,0.70
2023-01-18T08:11:51.091Z,0.80
2023-01-18T08:14:17.715Z,0.70
2023-01-18T08:16:44.980Z,0.70
2023-01-18T08:19:11.570Z,0.80
2023-01-18T08:21:38.472Z,0.80
2023-01-18T08:24:05.395Z,0.70
2023-01-18T08:26:32.185Z,0.80
2023-01-18T08:28:58.900Z,0.80
2023-01-18T08:31:25.491Z,0.80
2023-01-18T08:33:52.889Z,0.80
2023-01-18T08:36:24.635Z,0.80
2023-01-18T08:38:57.026Z,0.80
2023-01-18T08:41:28.834Z,0.90
2023-01-18T08:43:56.730Z,0.80
2023-01-18T08:46:24.339Z,0.90
2023-01-18T08:48:52.259Z,0.90
2023-01-18T08:51:18.893Z,0.90
2023-01-18T08:53:47.386Z,1.00
2023-01-18T08:56:14.037Z,1.10
2023-01-18T08:58:40.793Z,1.00
2023-01-18T09:01:08.869Z,1.10
2023-01-18T09:03:36.403Z,1.10
2023-01-18T09:06:05.943Z,1.20
2023-01-18T09:08:32.550Z,1.20
2023-01-18T09:11:06.859Z,1.30
2023-01-18T09:13:33.967Z,1.30
2023-01-18T09:16:02.627Z,1.30
2023-01-18T09:18:32.909Z,1.40
2023-01-18T09:21:07.009Z,1.50
2023-01-18T09:23:34.191Z,1.50
2023-01-18T09:26:20.345Z,1.60
2023-01-18T09:28:52.618Z,1.70
2023-01-18T09:31:24.741Z,1.80
2023-01-18T09:33:53.913Z,1.90
2023-01-18T09:36:26.052Z,1.90
2023-01-18T09:38:53.647Z,1.90
2023-01-18T09:41:36.287Z,2.10
2023-01-18T09:44:20.306Z,2.00
2023-01-18T09:46:54.097Z,2.00
2023-01-18T09:49:38.161Z,2.10
2023-01-18T09:52:29.799Z,2.20
2023-01-18T09:55:22.431Z,2.40
2023-01-18T09:58:23.286Z,2.50
2023-01-18T10:00:50.122Z,2.60
2023-01-18T10:03:31.302Z,2.60
2023-01-18T10:06:10.997Z,2.70
2023-01-18T10:08:47.109Z,2.80
2023-01-18T10:11:35.377Z,2.80
2023-01-18T10:14:27.500Z,2.90
2023-01-18T10:17:02.232Z,2.90
2023-01-18T10:19:31.409Z,3.10
2023-01-18T10:22:08.281Z,3.20
2023-01-18T10:25:02.878Z,3.10
2023-01-18T10:28:03.728Z,3.00
2023-01-18T10:30:41.851Z,3.10
2023-01-18T10:33:20.238Z,3.10
2023-01-18T10:35:55.186Z,3.30
2023-01-18T10:38:25.306Z,3.30
2023-01-18T10:40:57.688Z,3.30
2023-01-18T10:43:25.842Z,3.40
2023-01-18T10:45:55.802Z,3.50
2023-01-18T10:48:31.709Z,3.50
2023-01-18T10:51:05.849Z,3.40
2023-01-18T10:53:35.144Z,3.30
2023-01-18T10:56:16.509Z,3.20
2023-01-18T10:58:58.700Z,3.10
2023-01-18T11:01:32.663Z,3.00
2023-01-18T11:04:07.654Z,3.10
2023-01-18T11:06:53.582Z,3.10
2023-01-18T11:09:39.062Z,3.10
2023-01-18T11:12:34.224Z,3.20
2023-01-18T11:15:16.072Z,3.30
2023-01-18T11:17:57.850Z,3.60
2023-01-18T11:20:46.085Z,3.80
2023-01-18T11:23:25.463Z,3.80
2023-01-18T11:25:54.784Z,4.10
2023-01-18T11:28:34.747Z,4.40
2023-01-18T11:31:22.090Z,4.30
2023-01-18T11:33:57.728Z,4.50
2023-01-18T11:36:38.704Z,4.50
2023-01-18T11:39:37.882Z,4.60
2023-01-18T11:42:27.481Z,4.60
2023-01-18T11:45:00.950Z,4.40
2023-01-18T11:47:50.567Z,4.20
2023-01-18T11:50:33.345Z,4.00
2023-01-18T11:53:04.228Z,3.80
2023-01-18T11:55:40.603Z,3.80
2023-01-18T11:58:30.257Z,3.80
2023-01-18T12:00:56.810Z,3.60
2023-01-18T12:04:12.831Z,3.70
2023-01-18T12:06:55.808Z,3.70
2023-01-18T12:09:42.730Z,3.80
2023-01-18T12:12:26.995Z,3.70
2023-01-18T12:15:24.935Z,3.60
2023-01-18T12:18:16.686Z,3.60
2023-01-18T12:20:53.658Z,3.50
2023-01-18T12:23:47.272Z,3.60
2023-01-18T12:26:57.799Z,3.60
2023-01-18T12:29:53.518Z,3.40
2023-01-18T12:32:22.933Z,3.30
2023-01-18T12:35:15.561Z,3.20
2023-01-18T12:38:05.439Z,3.20
2023-01-18T12:41:07.012Z,3.30
2023-01-18T12:43:41.378Z,3.30
2023-01-18T12:46:11.405Z,3.30
2023-01-18T12:48:41.208Z,3.30
2023-01-18T12:51:21.416Z,3.30
2023-01-18T12:53:59.010Z,3.20
2023-01-18T12:56:29.903Z,3.20
2023-01-18T12:59:00.784Z,3.30
2023-01-18T13:01:34.695Z,3.30
2023-01-18T13:04:08.506Z,3.30
2023-01-18T13:06:38.358Z,3.30
2023-01-18T13:09:14.907Z,3.30
2023-01-18T13:11:43.636Z,3.20
2023-01-18T13:14:33.473Z,3.10
2023-01-18T13:17:32.890Z,3.10
2023-01-18T13:20:12.902Z,3.00
2023-01-18T13:23:08.530Z,3.00
2023-01-18T13:25:40.238Z,3.00
2023-01-18T13:28:23.745Z,3.00
2023-01-18T13:31:04.690Z,2.90
2023-01-18T13:33:40.820Z,3.00
2023-01-18T13:36:14.158Z,3.00
2023-01-18T13:38:53.287Z,3.00
2023-01-18T13:41:25.653Z,3.00
2023-01-18T13:43:53.218Z,3.00
2023-01-18T13:46:19.847Z,2.90
2023-01-18T13:49:36.322Z,2.90
2023-01-18T13:52:29.197Z,2.90
2023-01-18T13:54:55.853Z,2.80
2023-01-18T13:57:24.655Z,2.80
2023-01-18T13:59:52.178Z,2.80
2023-01-18T14:02:33.914Z,2.70
2023-01-18T14:05:19.921Z,2.60
2023-01-18T14:07:52.964Z,2.60
2023-01-18T14:10:25.306Z,2.50
2023-01-18T14:12:54.442Z,2.50
2023-01-18T14:15:26.817Z,2.40
2023-01-18T14:17:58.770Z,2.30
2023-01-18T14:20:45.380Z,2.30
2023-01-18T14:23:28.000Z,2.30
2023-01-18T14:26:03.653Z,2.20
2023-01-18T14:28:52.493Z,2.10
2023-01-18T14:31:23.178Z,2.10
2023-01-18T14:33:49.966Z,2.10
2023-01-18T14:36:28.170Z,2.10
2023-01-18T14:39:17.021Z,2.10
2023-01-18T14:41:51.175Z,2.00
2023-01-18T14:44:58.147Z,2.00
2023-01-18T14:47:30.624Z,2.00
2023-01-18T14:49:58.209Z,2.00
2023-01-18T14:52:30.439Z,2.00
2023-01-18T14:54:57.079Z,2.00
2023-01-18T14:57:24.283Z,2.00
2023-01-18T14:59:55.782Z,1.90
2023-01-18T15:02:27.022Z,1.90
2023-01-18T15:05:10.685Z,1.90
2023-01-18T15:07:39.266Z,1.80
2023-01-18T15:10:07.656Z,1.80
2023-01-18T15:12:35.253Z,1.70
2023-01-18T15:15:15.365Z,1.70
2023-01-18T15:17:43.048Z,1.70
2023-01-18T15:20:14.783Z,1.70
2023-01-18T15:22:42.130Z,1.70
2023-01-18T15:25:20.028Z,1.60
2023-01-18T15:27:51.906Z,1.70
2023-01-18T15:30:22.338Z,1.60
2023-01-18T15:32:53.890Z,1.60
2023-01-18T15:35:22.966Z,1.60
2023-01-18T15:37:49.713Z,1.50
2023-01-18T15:40:16.241Z,1.40
2023-01-18T15:42:49.613Z,1.40
2023-01-18T15:45:33.096Z,1.40
2023-01-18T15:48:06.467Z,1.30
2023-01-18T15:50:57.922Z,1.30
2023-01-18T15:53:38.664Z,1.20
2023-01-18T15:56:18.101Z,1.20
2023-01-18T15:58:51.169Z,1.10
2023-01-18T16:01:27.821Z,1.10
2023-01-18T16:03:58.789Z,1.00
2023-01-18T16:06:25.992Z,1.00
2023-01-18T16:09:12.678Z,0.90
2023-01-18T16:11:46.637Z,0.90
2023-01-18T16:14:22.853Z,0.80
2023-01-18T16:16:50.126Z,0.70
2023-01-18T16:19:23.383Z,0.60
2023-01-18T16:22:27.094Z,0.60
2023-01-18T16:25:15.124Z,0.50
2023-01-18T16:27:51.229Z,0.40
2023-01-18T16:30:37.482Z,0.30
2023-01-18T16:33:19.006Z,0.30
2023-01-18T16:35:46.266Z,0.20
2023-01-18T16:38:15.797Z,0.20
2023-01-18T16:40:45.097Z,0.10
2023-01-18T16:43:17.936Z,0.00
2023-01-18T16:45:46.458Z,-0.10
2023-01-18T16:48:20.525Z,-0.10
2023-01-18T16:50:47.961Z,-0.10
2023-01-18T16:53:14.632Z,-0.20
2023-01-18T16:55:43.920Z,-0.20
2023-01-18T16:58:12.905Z,-0.20
2023-01-18T17:00:54.834Z,-0.30
2023-01-18T17:03:21.665Z,-0.30
2023-01-18T17:05:48.513Z,-0.30
2023-01-18T17:08:16.371Z,-0.40
2023-01-18T17:10:45.350Z,-0.30
2023-01-18T17:13:12.096Z,-0.40
2023-01-18T17:15:41.800Z,-0.50
2023-01-18T17:18:13.237Z,-0.50
2023-01-18T17:20:39.965Z,-0.50
2023-01-18T17:23:06.727Z,-0.50
2023-01-18T17:25:33.382Z,-0.50
2023-01-18T17:28:00.924Z,-0.50
2023-01-18T17:30:27.864Z,-0.50
2023-01-18T17:32:54.935Z,-0.50
2023-01-18T17:35:25.182Z,-0.60
2023-01-18T17:38:00.670Z,-0.60
2023-01-18T17:40:40.187Z,-0.60
2023-01-18T17:43:15.256Z,-0.70
2023-01-18T17:45:43.922Z,-0.70
2023-01-18T17:48:13.239Z,-0.70
2023-01-18T17:50:41.038Z,-0.80
2023-01-18T17:53:08.730Z,-0.80
2023-01-18T17:55:35.682Z,-0.80
2023-01-18T17:58:02.804Z,-0.80
2023-01-18T18:00:29.674Z,-0.90
2023-01-18T18:02:57.347Z,-0.90
2023-01-18T18:05:24.425Z,-1.00
2023-01-18T18:07:51.088Z,-1.00
2023-01-18T18:10:17.747Z,-1.00
2023-01-18T18:12:44.451Z,-1.00
2023-01-18T18:15:11.105Z,-1.00
2023-01-18T18:17:38.106Z,-1.10
2023-01-18T18:20:05.374Z,-1.00
2023-01-18T18:22:32.114Z,-1.00
2023-01-18T18:24:58.923Z,-1.00
2023-01-18T18:27:37.308Z,-1.00
2023-01-18T18:30:12.622Z,-1.00
2023-01-18T18:32:39.323Z,-1.00
2023-01-18T18:35:14.706Z,-1.10
2023-01-18T18:37:50.021Z,-1.20
2023-01-18T18:40:17.121Z,-1.20
2023-01-18T18:42:49.875Z,-1.30
2023-01-18T18:45:26.898Z,-1.30
2023-01-18T18:47:53.595Z,-1.30
2023-01-18T18:50:20.398Z,-1.40
2023-01-18T18:52:47.066Z,-1.40
2023-01-18T18:55:13.725Z,-1.40
2023-01-18T18:57:40.409Z,-1.40
2023-01-18T19:00:07.811Z,-1.40
2023-01-18T19:02:35.004Z,-1.40
2023-01-18T19:05:02.055Z,-1.40
2023-01-18T19:07:29.054Z,-1.40
2023-01-18T19:09:55.997Z,-1.40
2023-01-18T19:12:22.675Z,-1.40
2023-01-18T19:14:49.420Z,-1.40
2023-01-18T19:17:28.893Z,-1.40
2023-01-18T19:19:56.757Z,-1.40
2023-01-18T19:22:23.736Z,-1.50
2023-01-18T19:24:50.324Z,-1.50
2023-01-18T19:27:17.224Z,-1.50
2023-01-18T19:29:43.911Z,-1.50
2023-01-18T19:32:10.614Z,-1.50
2023-01-18T19:34:39.965Z,-1.50
2023-01-18T19:37:06.911Z,-1.50
2023-01-18T19:39:34.810Z,-1.50
2023-01-18T19:42:02.308Z,-1.50
2023-01-18T19:44:29.395Z,-1.50
2023-01-18T19:46:56.857Z,-1.50
2023-01-18T19:49:25.801Z,-1.50
2023-01-18T19:51:54.502Z,-1.50
2023-01-18T19:54:21.714Z,-1.50
2023-01-18T19:56:48.419Z,-1.50
2023-01-18T19:59:15.413Z,-1.50
2023-01-18T20:01:42.329Z,-1.50
2023-01-18T20:04:09.578Z,-1.60
2023-01-18T20:06:39.909Z,-1.60
2023-01-18T20:09:18.441Z,-1.70
2023-01-18T20:11:46.242Z,-1.60
2023-01-18T20:14:13.140Z,-1.70
2023-01-18T20:16:40.099Z,-1.70
2023-01-18T20:19:06.979Z,-1.70
2023-01-18T20:21:33.679Z,-1.70
2023-01-18T20:24:00.885Z,-1.70
2023-01-18T20:26:36.511Z,-1.80
2023-01-18T20:29:06.598Z,-1.80
2023-01-18T20:31:36.799Z,-1.80
2023-01-18T20:34:04.631Z,-1.80
2023-01-18T20:36:32.078Z,-1.80
2023-01-18T20:38:58.751Z,-1.80
2023-01-18T20:41:25.421Z,-1.90
2023-01-18T20:43:52.490Z,-1.90
2023-01-18T20:46:19.187Z,-1.90
2023-01-18T20:48:46.043Z,-1.90
2023-01-18T20:51:12.808Z,-1.90
2023-01-18T20:53:39.393Z,-2.00
2023-01-18T20:56:17.074Z,-1.90
2023-01-18T20:58:54.331Z,-1.90
2023-01-18T21:01:21.048Z,-2.00
2023-01-18T21:03:54.292Z,-2.00
2023-01-18T21:06:21.272Z,-2.00
2023-01-18T21:08:47.915Z,-1.90
2023-01-18T21:11:17.444Z,-2.00
2023-01-18T21:13:44.437Z,-2.00
2023-01-18T21:16:11.134Z,-2.00
2023-01-18T21:18:39.503Z,-2.00
2023-01-18T21:21:07.380Z,-2.00
2023-01-18T21:23:39.392Z,-1.90
2023-01-18T21:26:08.953Z,-2.00
2023-01-18T21:28:35.911Z,-2.00
2023-01-18T21:31:02.602Z,-1.90
2023-01-18T21:33:29.184Z,-2.00
2023-01-18T21:35:55.915Z,-2.00
2023-01-18T21:38:23.165Z,-2.00
2023-01-18T21:40:50.013Z,-2.10
2023-01-18T21:43:37.850Z,-2.10
2023-01-18T21:46:07.374Z,-2.10
2023-01-18T21:48:34.087Z,-2.10
2023-01-18T21:51:21.222Z,-2.10
2023-01-18T21:54:06.682Z,-2.10
2023-01-18T21:56:33.436Z,-2.20
2023-01-18T21:59:01.025Z,-2.20
2023-01-18T22:01:47.948Z,-2.20
2023-01-18T22:04:34.367Z,-2.30
2023-01-18T22:07:01.410Z,-2.30
2023-01-18T22:09:29.621Z,-2.30
2023-01-18T22:11:57.208Z,-2.30
2023-01-18T22:14:24.651Z,-2.30
2023-01-18T22:16:51.627Z,-2.20
2023-01-18T22:19:21.522Z,-2.30
2023-01-18T22:21:49.241Z,-2.20
2023-01-18T22:24:17.220Z,-2.30
2023-01-18T22:26:45.277Z,-2.20
2023-01-18T22:29:12.489Z,-2.20
2023-01-18T22:31:39.881Z,-2.30
2023-01-18T22:34:06.854Z,-2.30
2023-01-18T22:36:33.894Z,-2.30
2023-01-18T22:39:00.636Z,-2.40
2023-01-18T22:41:28.657Z,-2.40
2023-01-18T22:43:55.965Z,-2.40
2023-01-18T22:46:23.940Z,-2.40
2023-01-18T22:48:50.735Z,-2.40
2023-01-18T22:51:20.603Z,-2.40
2023-01-18T22:53:47.901Z,-2.40
2023-01-18T22:56:20.428Z,-2.40
2023-01-18T22:58:48.034Z,-2.50
2023-01-18T23:01:18.987Z,-2.40
2023-01-18T23:03:46.053Z,-2.40
2023-01-18T23:06:13.210Z,-2.40
2023-01-18T23:08:43.466Z,-2.30
2023-01-18T23:11:14.907Z,-2.30
2023-01-18T23:13:43.448Z,-2.30
2023-01-18T23:16:32.764Z,-2.40
2023-01-18T23:18:59.351Z,-2.40
2023-01-18T23:21:26.027Z,-2.40
2023-01-18T23:23:52.672Z,-2.40
2023-01-18T23:26:19.296Z,-2.30
2023-01-18T23:28:45.883Z,-2.30
2023-01-18T23:31:15.461Z,-2.20
2023-01-18T23:33:42.385Z,-2.20
2023-01-18T23:36:10.504Z,-2.10
2023-01-18T23:38:56.032Z,-2.00
2023-01-18T23:41:41.741Z,-1.90
2023-01-18T23:44:27.389Z,-1.90
2023-01-18T23:47:12.494Z,-1.90
2023-01-18T23:49:58.172Z,-1.90
2023-01-18T23:52:43.342Z,-1.90
2023-01-18T23:55:10.395Z,-1.90
2023-01-18T23:57:36.981Z,-1.90
